<?xml version="1.0" encoding="UTF-8" standalone="no" ?>
<gpx xmlns="http://www.topografix.com/GPX/1/1" xmlns:xsi="http://www.w3.org/2001/XMLSchema-instance" xsi:schemaLocation="http://www.topografix.com/GPX/1/1 http://www.topografix.com/GPX/1/1/gpx.xsd" version="1.1" creator="VisuGPX - https://www.visugpx.com">
  <metadata>
    <name>GRPVannesJ6_J11</name>
    <desc><![CDATA[gnerando idor: 12438601_12438612_12438617_12438628_12438643_12438715]]></desc>
  </metadata>
  <trk>
    <name><![CDATA[GRPvannesJ6_LeCoursRochefortT_19.9km-12438601]]></name>
    <extensions>
      <line xmlns="http://www.topografix.com/GPX/gpx_style/0/2">
        <color>00FFFF</color>
        <width>4</width>
      </line>
    </extensions>
    <trkseg>
      <trkpt lat="47.74134" lon="-2.50106">
        <ele>85</ele>
        <time>2023-10-30T18:02:14Z</time>
      </trkpt>
      <trkpt lat="47.74149" lon="-2.5011">
        <ele>86</ele>
        <time>2023-10-30T18:02:34Z</time>
      </trkpt>
      <trkpt lat="47.74131" lon="-2.50105">
        <ele>85</ele>
        <time>2023-10-30T18:02:59Z</time>
      </trkpt>
      <trkpt lat="47.74166" lon="-2.50112">
        <ele>86</ele>
        <time>2023-10-30T18:03:46Z</time>
      </trkpt>
      <trkpt lat="47.74143" lon="-2.50123">
        <ele>86</ele>
        <time>2023-10-30T18:04:18Z</time>
      </trkpt>
      <trkpt lat="47.74122" lon="-2.50088">
        <ele>85</ele>
        <time>2023-10-30T18:05:00Z</time>
      </trkpt>
      <trkpt lat="47.74108" lon="-2.49996">
        <ele>84</ele>
        <time>2023-10-30T18:06:25Z</time>
      </trkpt>
      <trkpt lat="47.74061" lon="-2.49939">
        <ele>81</ele>
        <time>2023-10-30T18:07:46Z</time>
      </trkpt>
      <trkpt lat="47.7404" lon="-2.49923">
        <ele>80</ele>
        <time>2023-10-30T18:08:17Z</time>
      </trkpt>
      <trkpt lat="47.74025" lon="-2.49908">
        <ele>79</ele>
        <time>2023-10-30T18:08:41Z</time>
      </trkpt>
      <trkpt lat="47.74014" lon="-2.49906">
        <ele>78</ele>
        <time>2023-10-30T18:08:56Z</time>
      </trkpt>
      <trkpt lat="47.74021" lon="-2.49868">
        <ele>78</ele>
        <time>2023-10-30T18:09:32Z</time>
      </trkpt>
      <trkpt lat="47.74036" lon="-2.49865">
        <ele>78</ele>
        <time>2023-10-30T18:09:52Z</time>
      </trkpt>
      <trkpt lat="47.7403" lon="-2.49759">
        <ele>72</ele>
        <time>2023-10-30T18:11:27Z</time>
      </trkpt>
      <trkpt lat="47.74028" lon="-2.49749">
        <ele>72</ele>
        <time>2023-10-30T18:11:37Z</time>
      </trkpt>
      <trkpt lat="47.74016" lon="-2.49729">
        <ele>70</ele>
        <time>2023-10-30T18:12:01Z</time>
      </trkpt>
      <trkpt lat="47.74013" lon="-2.49669">
        <ele>64</ele>
        <time>2023-10-30T18:12:55Z</time>
      </trkpt>
      <trkpt lat="47.74022" lon="-2.49658">
        <ele>64</ele>
        <time>2023-10-30T18:13:10Z</time>
      </trkpt>
      <trkpt lat="47.74021" lon="-2.49651">
        <ele>64</ele>
        <time>2023-10-30T18:13:17Z</time>
      </trkpt>
      <trkpt lat="47.74025" lon="-2.49634">
        <ele>63</ele>
        <time>2023-10-30T18:13:33Z</time>
      </trkpt>
      <trkpt lat="47.74028" lon="-2.49595">
        <ele>62</ele>
        <time>2023-10-30T18:14:08Z</time>
      </trkpt>
      <trkpt lat="47.74015" lon="-2.49576">
        <ele>62</ele>
        <time>2023-10-30T18:14:32Z</time>
      </trkpt>
      <trkpt lat="47.7404" lon="-2.4957">
        <ele>63</ele>
        <time>2023-10-30T18:15:06Z</time>
      </trkpt>
      <trkpt lat="47.74053" lon="-2.49588">
        <ele>62</ele>
        <time>2023-10-30T18:15:30Z</time>
      </trkpt>
      <trkpt lat="47.74082" lon="-2.49655">
        <ele>64</ele>
        <time>2023-10-30T18:16:41Z</time>
      </trkpt>
      <trkpt lat="47.74093" lon="-2.49675">
        <ele>65</ele>
        <time>2023-10-30T18:17:05Z</time>
      </trkpt>
      <trkpt lat="47.74107" lon="-2.49693">
        <ele>66</ele>
        <time>2023-10-30T18:17:29Z</time>
      </trkpt>
      <trkpt lat="47.74122" lon="-2.49702">
        <ele>67</ele>
        <time>2023-10-30T18:17:51Z</time>
      </trkpt>
      <trkpt lat="47.74183" lon="-2.49706">
        <ele>67</ele>
        <time>2023-10-30T18:19:12Z</time>
      </trkpt>
      <trkpt lat="47.74204" lon="-2.49683">
        <ele>67</ele>
        <time>2023-10-30T18:19:47Z</time>
      </trkpt>
      <trkpt lat="47.74222" lon="-2.49678">
        <ele>67</ele>
        <time>2023-10-30T18:20:12Z</time>
      </trkpt>
      <trkpt lat="47.74263" lon="-2.49648">
        <ele>69</ele>
        <time>2023-10-30T18:21:12Z</time>
      </trkpt>
      <trkpt lat="47.74303" lon="-2.4961">
        <ele>72</ele>
        <time>2023-10-30T18:22:16Z</time>
      </trkpt>
      <trkpt lat="47.74325" lon="-2.49585">
        <ele>73</ele>
        <time>2023-10-30T18:22:53Z</time>
      </trkpt>
      <trkpt lat="47.74355" lon="-2.49566">
        <ele>74</ele>
        <time>2023-10-30T18:23:36Z</time>
      </trkpt>
      <trkpt lat="47.74419" lon="-2.49534">
        <ele>75</ele>
        <time>2023-10-30T18:25:06Z</time>
      </trkpt>
      <trkpt lat="47.74452" lon="-2.49541">
        <ele>73</ele>
        <time>2023-10-30T18:25:51Z</time>
      </trkpt>
      <trkpt lat="47.74486" lon="-2.49568">
        <ele>70</ele>
        <time>2023-10-30T18:26:42Z</time>
      </trkpt>
      <trkpt lat="47.74489" lon="-2.49567">
        <ele>70</ele>
        <time>2023-10-30T18:26:46Z</time>
      </trkpt>
      <trkpt lat="47.74482" lon="-2.49481">
        <ele>76</ele>
        <time>2023-10-30T18:28:04Z</time>
      </trkpt>
      <trkpt lat="47.74456" lon="-2.4943">
        <ele>81</ele>
        <time>2023-10-30T18:29:02Z</time>
      </trkpt>
      <trkpt lat="47.74473" lon="-2.49395">
        <ele>82</ele>
        <time>2023-10-30T18:29:40Z</time>
      </trkpt>
      <trkpt lat="47.74456" lon="-2.4909">
        <ele>82</ele>
        <time>2023-10-30T18:34:15Z</time>
      </trkpt>
      <trkpt lat="47.74446" lon="-2.48959">
        <ele>83</ele>
        <time>2023-10-30T18:36:13Z</time>
      </trkpt>
      <trkpt lat="47.74395" lon="-2.48927">
        <ele>83</ele>
        <time>2023-10-30T18:37:27Z</time>
      </trkpt>
      <trkpt lat="47.74352" lon="-2.48908">
        <ele>84</ele>
        <time>2023-10-30T18:38:27Z</time>
      </trkpt>
      <trkpt lat="47.7433" lon="-2.48911">
        <ele>83</ele>
        <time>2023-10-30T18:38:56Z</time>
      </trkpt>
      <trkpt lat="47.74277" lon="-2.4896">
        <ele>82</ele>
        <time>2023-10-30T18:40:20Z</time>
      </trkpt>
      <trkpt lat="47.7412" lon="-2.49219">
        <ele>76</ele>
        <time>2023-10-30T18:45:33Z</time>
      </trkpt>
      <trkpt lat="47.74101" lon="-2.49234">
        <ele>76</ele>
        <time>2023-10-30T18:46:01Z</time>
      </trkpt>
      <trkpt lat="47.7405" lon="-2.4926">
        <ele>76</ele>
        <time>2023-10-30T18:47:13Z</time>
      </trkpt>
      <trkpt lat="47.74024" lon="-2.49314">
        <ele>75</ele>
        <time>2023-10-30T18:48:13Z</time>
      </trkpt>
      <trkpt lat="47.74002" lon="-2.49353">
        <ele>75</ele>
        <time>2023-10-30T18:48:59Z</time>
      </trkpt>
      <trkpt lat="47.73942" lon="-2.49387">
        <ele>76</ele>
        <time>2023-10-30T18:50:24Z</time>
      </trkpt>
      <trkpt lat="47.73933" lon="-2.49276">
        <ele>77</ele>
        <time>2023-10-30T18:52:05Z</time>
      </trkpt>
      <trkpt lat="47.73927" lon="-2.49138">
        <ele>81</ele>
        <time>2023-10-30T18:54:09Z</time>
      </trkpt>
      <trkpt lat="47.73905" lon="-2.49019">
        <ele>85</ele>
        <time>2023-10-30T18:55:59Z</time>
      </trkpt>
      <trkpt lat="47.73906" lon="-2.48886">
        <ele>86</ele>
        <time>2023-10-30T18:57:59Z</time>
      </trkpt>
      <trkpt lat="47.73899" lon="-2.48779">
        <ele>85</ele>
        <time>2023-10-30T18:59:35Z</time>
      </trkpt>
      <trkpt lat="47.73887" lon="-2.48726">
        <ele>85</ele>
        <time>2023-10-30T19:00:26Z</time>
      </trkpt>
      <trkpt lat="47.73886" lon="-2.48687">
        <ele>86</ele>
        <time>2023-10-30T19:01:01Z</time>
      </trkpt>
      <trkpt lat="47.73881" lon="-2.48643">
        <ele>86</ele>
        <time>2023-10-30T19:01:41Z</time>
      </trkpt>
      <trkpt lat="47.73882" lon="-2.4855">
        <ele>85</ele>
        <time>2023-10-30T19:03:04Z</time>
      </trkpt>
      <trkpt lat="47.73879" lon="-2.48453">
        <ele>85</ele>
        <time>2023-10-30T19:04:31Z</time>
      </trkpt>
      <trkpt lat="47.73905" lon="-2.48268">
        <ele>79</ele>
        <time>2023-10-30T19:07:21Z</time>
      </trkpt>
      <trkpt lat="47.73922" lon="-2.48183">
        <ele>78</ele>
        <time>2023-10-30T19:08:40Z</time>
      </trkpt>
      <trkpt lat="47.73928" lon="-2.48127">
        <ele>78</ele>
        <time>2023-10-30T19:09:31Z</time>
      </trkpt>
      <trkpt lat="47.73931" lon="-2.48124">
        <ele>78</ele>
        <time>2023-10-30T19:09:36Z</time>
      </trkpt>
      <trkpt lat="47.73929" lon="-2.4811">
        <ele>77</ele>
        <time>2023-10-30T19:09:49Z</time>
      </trkpt>
      <trkpt lat="47.73973" lon="-2.4809">
        <ele>78</ele>
        <time>2023-10-30T19:10:50Z</time>
      </trkpt>
      <trkpt lat="47.74025" lon="-2.48071">
        <ele>79</ele>
        <time>2023-10-30T19:12:02Z</time>
      </trkpt>
      <trkpt lat="47.74089" lon="-2.48032">
        <ele>81</ele>
        <time>2023-10-30T19:13:34Z</time>
      </trkpt>
      <trkpt lat="47.74148" lon="-2.47991">
        <ele>83</ele>
        <time>2023-10-30T19:15:01Z</time>
      </trkpt>
      <trkpt lat="47.74173" lon="-2.4796">
        <ele>82</ele>
        <time>2023-10-30T19:15:44Z</time>
      </trkpt>
      <trkpt lat="47.74186" lon="-2.47915">
        <ele>81</ele>
        <time>2023-10-30T19:16:28Z</time>
      </trkpt>
      <trkpt lat="47.7423" lon="-2.47823">
        <ele>82</ele>
        <time>2023-10-30T19:18:10Z</time>
      </trkpt>
      <trkpt lat="47.74288" lon="-2.4774">
        <ele>85</ele>
        <time>2023-10-30T19:19:57Z</time>
      </trkpt>
      <trkpt lat="47.74314" lon="-2.47695">
        <ele>86</ele>
        <time>2023-10-30T19:20:50Z</time>
      </trkpt>
      <trkpt lat="47.74345" lon="-2.47629">
        <ele>86</ele>
        <time>2023-10-30T19:22:03Z</time>
      </trkpt>
      <trkpt lat="47.7435" lon="-2.47565">
        <ele>86</ele>
        <time>2023-10-30T19:23:00Z</time>
      </trkpt>
      <trkpt lat="47.74337" lon="-2.4751">
        <ele>85</ele>
        <time>2023-10-30T19:23:53Z</time>
      </trkpt>
      <trkpt lat="47.74219" lon="-2.47543">
        <ele>86</ele>
        <time>2023-10-30T19:26:33Z</time>
      </trkpt>
      <trkpt lat="47.74095" lon="-2.47571">
        <ele>90</ele>
        <time>2023-10-30T19:29:20Z</time>
      </trkpt>
      <trkpt lat="47.74023" lon="-2.47277">
        <ele>93</ele>
        <time>2023-10-30T19:34:01Z</time>
      </trkpt>
      <trkpt lat="47.7401" lon="-2.47212">
        <ele>93</ele>
        <time>2023-10-30T19:35:02Z</time>
      </trkpt>
      <trkpt lat="47.74006" lon="-2.47149">
        <ele>94</ele>
        <time>2023-10-30T19:35:59Z</time>
      </trkpt>
      <trkpt lat="47.74019" lon="-2.471">
        <ele>96</ele>
        <time>2023-10-30T19:36:46Z</time>
      </trkpt>
      <trkpt lat="47.74081" lon="-2.46912">
        <ele>94</ele>
        <time>2023-10-30T19:39:54Z</time>
      </trkpt>
      <trkpt lat="47.73963" lon="-2.46841">
        <ele>101</ele>
        <time>2023-10-30T19:42:44Z</time>
      </trkpt>
      <trkpt lat="47.73971" lon="-2.46765">
        <ele>102</ele>
        <time>2023-10-30T19:43:53Z</time>
      </trkpt>
      <trkpt lat="47.73974" lon="-2.46705">
        <ele>102</ele>
        <time>2023-10-30T19:44:47Z</time>
      </trkpt>
      <trkpt lat="47.73973" lon="-2.46663">
        <ele>103</ele>
        <time>2023-10-30T19:45:25Z</time>
      </trkpt>
      <trkpt lat="47.73965" lon="-2.46638">
        <ele>103</ele>
        <time>2023-10-30T19:45:49Z</time>
      </trkpt>
      <trkpt lat="47.73971" lon="-2.46593">
        <ele>102</ele>
        <time>2023-10-30T19:46:31Z</time>
      </trkpt>
      <trkpt lat="47.73971" lon="-2.46574">
        <ele>102</ele>
        <time>2023-10-30T19:46:48Z</time>
      </trkpt>
      <trkpt lat="47.73927" lon="-2.46546">
        <ele>104</ele>
        <time>2023-10-30T19:47:52Z</time>
      </trkpt>
      <trkpt lat="47.73887" lon="-2.46513">
        <ele>104</ele>
        <time>2023-10-30T19:48:53Z</time>
      </trkpt>
      <trkpt lat="47.73823" lon="-2.46474">
        <ele>103</ele>
        <time>2023-10-30T19:50:25Z</time>
      </trkpt>
      <trkpt lat="47.73781" lon="-2.46467">
        <ele>101</ele>
        <time>2023-10-30T19:51:21Z</time>
      </trkpt>
      <trkpt lat="47.73765" lon="-2.46469">
        <ele>101</ele>
        <time>2023-10-30T19:51:43Z</time>
      </trkpt>
      <trkpt lat="47.73742" lon="-2.4648">
        <ele>99</ele>
        <time>2023-10-30T19:52:15Z</time>
      </trkpt>
      <trkpt lat="47.73733" lon="-2.46429">
        <ele>98</ele>
        <time>2023-10-30T19:53:02Z</time>
      </trkpt>
      <trkpt lat="47.73727" lon="-2.46355">
        <ele>96</ele>
        <time>2023-10-30T19:54:09Z</time>
      </trkpt>
      <trkpt lat="47.73728" lon="-2.46262">
        <ele>95</ele>
        <time>2023-10-30T19:55:33Z</time>
      </trkpt>
      <trkpt lat="47.73726" lon="-2.46248">
        <ele>94</ele>
        <time>2023-10-30T19:55:45Z</time>
      </trkpt>
      <trkpt lat="47.73714" lon="-2.46214">
        <ele>95</ele>
        <time>2023-10-30T19:56:20Z</time>
      </trkpt>
      <trkpt lat="47.73714" lon="-2.46196">
        <ele>95</ele>
        <time>2023-10-30T19:56:36Z</time>
      </trkpt>
      <trkpt lat="47.73693" lon="-2.46153">
        <ele>96</ele>
        <time>2023-10-30T19:57:24Z</time>
      </trkpt>
      <trkpt lat="47.73693" lon="-2.46135">
        <ele>96</ele>
        <time>2023-10-30T19:57:40Z</time>
      </trkpt>
      <trkpt lat="47.73697" lon="-2.46127">
        <ele>96</ele>
        <time>2023-10-30T19:57:49Z</time>
      </trkpt>
      <trkpt lat="47.73695" lon="-2.46102">
        <ele>96</ele>
        <time>2023-10-30T19:58:11Z</time>
      </trkpt>
      <trkpt lat="47.73691" lon="-2.46091">
        <ele>96</ele>
        <time>2023-10-30T19:58:23Z</time>
      </trkpt>
      <trkpt lat="47.7369" lon="-2.46064">
        <ele>96</ele>
        <time>2023-10-30T19:58:47Z</time>
      </trkpt>
      <trkpt lat="47.73696" lon="-2.4605">
        <ele>95</ele>
        <time>2023-10-30T19:59:02Z</time>
      </trkpt>
      <trkpt lat="47.73714" lon="-2.46035">
        <ele>95</ele>
        <time>2023-10-30T19:59:29Z</time>
      </trkpt>
      <trkpt lat="47.73715" lon="-2.46019">
        <ele>95</ele>
        <time>2023-10-30T19:59:44Z</time>
      </trkpt>
      <trkpt lat="47.73721" lon="-2.46004">
        <ele>95</ele>
        <time>2023-10-30T19:59:59Z</time>
      </trkpt>
      <trkpt lat="47.73705" lon="-2.45954">
        <ele>93</ele>
        <time>2023-10-30T20:00:49Z</time>
      </trkpt>
      <trkpt lat="47.73684" lon="-2.45902">
        <ele>91</ele>
        <time>2023-10-30T20:01:44Z</time>
      </trkpt>
      <trkpt lat="47.73665" lon="-2.45912">
        <ele>91</ele>
        <time>2023-10-30T20:02:11Z</time>
      </trkpt>
      <trkpt lat="47.73599" lon="-2.45933">
        <ele>90</ele>
        <time>2023-10-30T20:03:41Z</time>
      </trkpt>
      <trkpt lat="47.73531" lon="-2.4594">
        <ele>89</ele>
        <time>2023-10-30T20:05:12Z</time>
      </trkpt>
      <trkpt lat="47.73477" lon="-2.45935">
        <ele>88</ele>
        <time>2023-10-30T20:06:24Z</time>
      </trkpt>
      <trkpt lat="47.73484" lon="-2.45902">
        <ele>88</ele>
        <time>2023-10-30T20:06:55Z</time>
      </trkpt>
      <trkpt lat="47.7352" lon="-2.45799">
        <ele>86</ele>
        <time>2023-10-30T20:08:39Z</time>
      </trkpt>
      <trkpt lat="47.73531" lon="-2.45756">
        <ele>85</ele>
        <time>2023-10-30T20:09:20Z</time>
      </trkpt>
      <trkpt lat="47.73533" lon="-2.45703">
        <ele>85</ele>
        <time>2023-10-30T20:10:08Z</time>
      </trkpt>
      <trkpt lat="47.73527" lon="-2.45639">
        <ele>85</ele>
        <time>2023-10-30T20:11:06Z</time>
      </trkpt>
      <trkpt lat="47.73527" lon="-2.45586">
        <ele>86</ele>
        <time>2023-10-30T20:11:53Z</time>
      </trkpt>
      <trkpt lat="47.73525" lon="-2.45569">
        <ele>86</ele>
        <time>2023-10-30T20:12:09Z</time>
      </trkpt>
      <trkpt lat="47.73493" lon="-2.45579">
        <ele>87</ele>
        <time>2023-10-30T20:12:53Z</time>
      </trkpt>
      <trkpt lat="47.73472" lon="-2.45594">
        <ele>86</ele>
        <time>2023-10-30T20:13:24Z</time>
      </trkpt>
      <trkpt lat="47.73436" lon="-2.45591">
        <ele>86</ele>
        <time>2023-10-30T20:14:12Z</time>
      </trkpt>
      <trkpt lat="47.73395" lon="-2.45617">
        <ele>85</ele>
        <time>2023-10-30T20:15:11Z</time>
      </trkpt>
      <trkpt lat="47.73342" lon="-2.45636">
        <ele>82</ele>
        <time>2023-10-30T20:16:24Z</time>
      </trkpt>
      <trkpt lat="47.73302" lon="-2.45672">
        <ele>79</ele>
        <time>2023-10-30T20:17:26Z</time>
      </trkpt>
      <trkpt lat="47.73243" lon="-2.45694">
        <ele>75</ele>
        <time>2023-10-30T20:18:48Z</time>
      </trkpt>
      <trkpt lat="47.73192" lon="-2.45662">
        <ele>74</ele>
        <time>2023-10-30T20:20:01Z</time>
      </trkpt>
      <trkpt lat="47.7316" lon="-2.45633">
        <ele>73</ele>
        <time>2023-10-30T20:20:51Z</time>
      </trkpt>
      <trkpt lat="47.73105" lon="-2.45544">
        <ele>70</ele>
        <time>2023-10-30T20:22:40Z</time>
      </trkpt>
      <trkpt lat="47.73061" lon="-2.4552">
        <ele>69</ele>
        <time>2023-10-30T20:23:43Z</time>
      </trkpt>
      <trkpt lat="47.73" lon="-2.45458">
        <ele>70</ele>
        <time>2023-10-30T20:25:21Z</time>
      </trkpt>
      <trkpt lat="47.72991" lon="-2.4524">
        <ele>68</ele>
        <time>2023-10-30T20:28:37Z</time>
      </trkpt>
      <trkpt lat="47.72978" lon="-2.45119">
        <ele>65</ele>
        <time>2023-10-30T20:30:27Z</time>
      </trkpt>
      <trkpt lat="47.72978" lon="-2.45055">
        <ele>66</ele>
        <time>2023-10-30T20:31:25Z</time>
      </trkpt>
      <trkpt lat="47.72973" lon="-2.44961">
        <ele>67</ele>
        <time>2023-10-30T20:32:49Z</time>
      </trkpt>
      <trkpt lat="47.72956" lon="-2.44846">
        <ele>70</ele>
        <time>2023-10-30T20:34:35Z</time>
      </trkpt>
      <trkpt lat="47.72951" lon="-2.44619">
        <ele>80</ele>
        <time>2023-10-30T20:37:59Z</time>
      </trkpt>
      <trkpt lat="47.72963" lon="-2.44354">
        <ele>79</ele>
        <time>2023-10-30T20:41:57Z</time>
      </trkpt>
      <trkpt lat="47.72976" lon="-2.44214">
        <ele>75</ele>
        <time>2023-10-30T20:44:04Z</time>
      </trkpt>
      <trkpt lat="47.73014" lon="-2.43975">
        <ele>69</ele>
        <time>2023-10-30T20:47:44Z</time>
      </trkpt>
      <trkpt lat="47.73036" lon="-2.4387">
        <ele>65</ele>
        <time>2023-10-30T20:49:23Z</time>
      </trkpt>
      <trkpt lat="47.73044" lon="-2.43813">
        <ele>68</ele>
        <time>2023-10-30T20:50:15Z</time>
      </trkpt>
      <trkpt lat="47.73064" lon="-2.43788">
        <ele>70</ele>
        <time>2023-10-30T20:50:50Z</time>
      </trkpt>
      <trkpt lat="47.73071" lon="-2.43581">
        <ele>81</ele>
        <time>2023-10-30T20:53:56Z</time>
      </trkpt>
      <trkpt lat="47.7307" lon="-2.43548">
        <ele>83</ele>
        <time>2023-10-30T20:54:26Z</time>
      </trkpt>
      <trkpt lat="47.73027" lon="-2.43534">
        <ele>83</ele>
        <time>2023-10-30T20:55:25Z</time>
      </trkpt>
      <trkpt lat="47.73026" lon="-2.43507">
        <ele>84</ele>
        <time>2023-10-30T20:55:49Z</time>
      </trkpt>
      <trkpt lat="47.73031" lon="-2.43514">
        <ele>84</ele>
        <time>2023-10-30T20:55:58Z</time>
      </trkpt>
      <trkpt lat="47.73017" lon="-2.43516">
        <ele>84</ele>
        <time>2023-10-30T20:56:17Z</time>
      </trkpt>
      <trkpt lat="47.72977" lon="-2.43503">
        <ele>82</ele>
        <time>2023-10-30T20:57:12Z</time>
      </trkpt>
      <trkpt lat="47.72831" lon="-2.43493">
        <ele>74</ele>
        <time>2023-10-30T21:00:27Z</time>
      </trkpt>
      <trkpt lat="47.72719" lon="-2.43536">
        <ele>70</ele>
        <time>2023-10-30T21:03:01Z</time>
      </trkpt>
      <trkpt lat="47.72479" lon="-2.43675">
        <ele>62</ele>
        <time>2023-10-30T21:08:45Z</time>
      </trkpt>
      <trkpt lat="47.72403" lon="-2.43715">
        <ele>58</ele>
        <time>2023-10-30T21:10:32Z</time>
      </trkpt>
      <trkpt lat="47.72372" lon="-2.43745">
        <ele>57</ele>
        <time>2023-10-30T21:11:22Z</time>
      </trkpt>
      <trkpt lat="47.72329" lon="-2.43821">
        <ele>52</ele>
        <time>2023-10-30T21:12:51Z</time>
      </trkpt>
      <trkpt lat="47.72273" lon="-2.43856">
        <ele>46</ele>
        <time>2023-10-30T21:14:12Z</time>
      </trkpt>
      <trkpt lat="47.7218" lon="-2.43881">
        <ele>40</ele>
        <time>2023-10-30T21:16:18Z</time>
      </trkpt>
      <trkpt lat="47.72138" lon="-2.43921">
        <ele>33</ele>
        <time>2023-10-30T21:17:25Z</time>
      </trkpt>
      <trkpt lat="47.72117" lon="-2.43919">
        <ele>31</ele>
        <time>2023-10-30T21:17:53Z</time>
      </trkpt>
      <trkpt lat="47.72102" lon="-2.43854">
        <ele>33</ele>
        <time>2023-10-30T21:18:54Z</time>
      </trkpt>
      <trkpt lat="47.72073" lon="-2.43688">
        <ele>33</ele>
        <time>2023-10-30T21:21:28Z</time>
      </trkpt>
      <trkpt lat="47.72043" lon="-2.43589">
        <ele>32</ele>
        <time>2023-10-30T21:23:06Z</time>
      </trkpt>
      <trkpt lat="47.72007" lon="-2.43489">
        <ele>31</ele>
        <time>2023-10-30T21:24:48Z</time>
      </trkpt>
      <trkpt lat="47.71984" lon="-2.4344">
        <ele>29</ele>
        <time>2023-10-30T21:25:41Z</time>
      </trkpt>
      <trkpt lat="47.71944" lon="-2.43416">
        <ele>28</ele>
        <time>2023-10-30T21:26:39Z</time>
      </trkpt>
      <trkpt lat="47.71874" lon="-2.43363">
        <ele>27</ele>
        <time>2023-10-30T21:28:24Z</time>
      </trkpt>
      <trkpt lat="47.7184" lon="-2.43327">
        <ele>24</ele>
        <time>2023-10-30T21:29:19Z</time>
      </trkpt>
      <trkpt lat="47.71773" lon="-2.43244">
        <ele>25</ele>
        <time>2023-10-30T21:31:16Z</time>
      </trkpt>
      <trkpt lat="47.71738" lon="-2.43181">
        <ele>26</ele>
        <time>2023-10-30T21:32:29Z</time>
      </trkpt>
      <trkpt lat="47.71728" lon="-2.4308">
        <ele>27</ele>
        <time>2023-10-30T21:34:01Z</time>
      </trkpt>
      <trkpt lat="47.71734" lon="-2.42883">
        <ele>27</ele>
        <time>2023-10-30T21:36:58Z</time>
      </trkpt>
      <trkpt lat="47.71744" lon="-2.42704">
        <ele>28</ele>
        <time>2023-10-30T21:39:39Z</time>
      </trkpt>
      <trkpt lat="47.71744" lon="-2.4265">
        <ele>28</ele>
        <time>2023-10-30T21:40:28Z</time>
      </trkpt>
      <trkpt lat="47.71724" lon="-2.42579">
        <ele>26</ele>
        <time>2023-10-30T21:41:37Z</time>
      </trkpt>
      <trkpt lat="47.71707" lon="-2.425">
        <ele>26</ele>
        <time>2023-10-30T21:42:51Z</time>
      </trkpt>
      <trkpt lat="47.71691" lon="-2.42462">
        <ele>26</ele>
        <time>2023-10-30T21:43:31Z</time>
      </trkpt>
      <trkpt lat="47.71681" lon="-2.42414">
        <ele>26</ele>
        <time>2023-10-30T21:44:16Z</time>
      </trkpt>
      <trkpt lat="47.71684" lon="-2.42355">
        <ele>30</ele>
        <time>2023-10-30T21:45:10Z</time>
      </trkpt>
      <trkpt lat="47.71692" lon="-2.42329">
        <ele>31</ele>
        <time>2023-10-30T21:45:35Z</time>
      </trkpt>
      <trkpt lat="47.71692" lon="-2.42315">
        <ele>33</ele>
        <time>2023-10-30T21:45:48Z</time>
      </trkpt>
      <trkpt lat="47.71679" lon="-2.42301">
        <ele>34</ele>
        <time>2023-10-30T21:46:09Z</time>
      </trkpt>
      <trkpt lat="47.71464" lon="-2.42281">
        <ele>44</ele>
        <time>2023-10-30T21:50:57Z</time>
      </trkpt>
      <trkpt lat="47.71405" lon="-2.4228">
        <ele>46</ele>
        <time>2023-10-30T21:52:15Z</time>
      </trkpt>
      <trkpt lat="47.71349" lon="-2.42268">
        <ele>47</ele>
        <time>2023-10-30T21:53:31Z</time>
      </trkpt>
      <trkpt lat="47.71285" lon="-2.42249">
        <ele>48</ele>
        <time>2023-10-30T21:54:58Z</time>
      </trkpt>
      <trkpt lat="47.71255" lon="-2.42216">
        <ele>49</ele>
        <time>2023-10-30T21:55:48Z</time>
      </trkpt>
      <trkpt lat="47.71188" lon="-2.42193">
        <ele>51</ele>
        <time>2023-10-30T21:57:20Z</time>
      </trkpt>
      <trkpt lat="47.71106" lon="-2.42153">
        <ele>52</ele>
        <time>2023-10-30T21:59:15Z</time>
      </trkpt>
      <trkpt lat="47.7104" lon="-2.42113">
        <ele>52</ele>
        <time>2023-10-30T22:00:50Z</time>
      </trkpt>
      <trkpt lat="47.70976" lon="-2.42084">
        <ele>53</ele>
        <time>2023-10-30T22:02:19Z</time>
      </trkpt>
      <trkpt lat="47.70908" lon="-2.42041">
        <ele>57</ele>
        <time>2023-10-30T22:03:58Z</time>
      </trkpt>
      <trkpt lat="47.70882" lon="-2.42022">
        <ele>59</ele>
        <time>2023-10-30T22:04:36Z</time>
      </trkpt>
      <trkpt lat="47.70892" lon="-2.42">
        <ele>58</ele>
        <time>2023-10-30T22:05:00Z</time>
      </trkpt>
      <trkpt lat="47.7087" lon="-2.41991">
        <ele>60</ele>
        <time>2023-10-30T22:05:31Z</time>
      </trkpt>
      <trkpt lat="47.70895" lon="-2.4197">
        <ele>61</ele>
        <time>2023-10-30T22:06:09Z</time>
      </trkpt>
      <trkpt lat="47.70873" lon="-2.41958">
        <ele>64</ele>
        <time>2023-10-30T22:06:40Z</time>
      </trkpt>
      <trkpt lat="47.70892" lon="-2.41933">
        <ele>65</ele>
        <time>2023-10-30T22:07:14Z</time>
      </trkpt>
      <trkpt lat="47.70903" lon="-2.41897">
        <ele>67</ele>
        <time>2023-10-30T22:07:50Z</time>
      </trkpt>
      <trkpt lat="47.70907" lon="-2.41784">
        <ele>74</ele>
        <time>2023-10-30T22:09:31Z</time>
      </trkpt>
      <trkpt lat="47.70895" lon="-2.41753">
        <ele>77</ele>
        <time>2023-10-30T22:10:03Z</time>
      </trkpt>
      <trkpt lat="47.70895" lon="-2.41693">
        <ele>79</ele>
        <time>2023-10-30T22:10:57Z</time>
      </trkpt>
      <trkpt lat="47.70921" lon="-2.41605">
        <ele>74</ele>
        <time>2023-10-30T22:12:24Z</time>
      </trkpt>
      <trkpt lat="47.70946" lon="-2.41544">
        <ele>70</ele>
        <time>2023-10-30T22:13:28Z</time>
      </trkpt>
      <trkpt lat="47.70961" lon="-2.41515">
        <ele>67</ele>
        <time>2023-10-30T22:14:01Z</time>
      </trkpt>
      <trkpt lat="47.70962" lon="-2.41432">
        <ele>67</ele>
        <time>2023-10-30T22:15:15Z</time>
      </trkpt>
      <trkpt lat="47.70956" lon="-2.41358">
        <ele>65</ele>
        <time>2023-10-30T22:16:22Z</time>
      </trkpt>
      <trkpt lat="47.70976" lon="-2.4125">
        <ele>58</ele>
        <time>2023-10-30T22:18:03Z</time>
      </trkpt>
      <trkpt lat="47.7098" lon="-2.41173">
        <ele>55</ele>
        <time>2023-10-30T22:19:12Z</time>
      </trkpt>
      <trkpt lat="47.71003" lon="-2.41052">
        <ele>50</ele>
        <time>2023-10-30T22:21:05Z</time>
      </trkpt>
      <trkpt lat="47.70987" lon="-2.40987">
        <ele>50</ele>
        <time>2023-10-30T22:22:07Z</time>
      </trkpt>
      <trkpt lat="47.70992" lon="-2.40924">
        <ele>47</ele>
        <time>2023-10-30T22:23:04Z</time>
      </trkpt>
      <trkpt lat="47.71016" lon="-2.40786">
        <ele>40</ele>
        <time>2023-10-30T22:25:12Z</time>
      </trkpt>
      <trkpt lat="47.71029" lon="-2.40731">
        <ele>37</ele>
        <time>2023-10-30T22:26:04Z</time>
      </trkpt>
      <trkpt lat="47.7103" lon="-2.40704">
        <ele>36</ele>
        <time>2023-10-30T22:26:29Z</time>
      </trkpt>
      <trkpt lat="47.71105" lon="-2.40691">
        <ele>32</ele>
        <time>2023-10-30T22:28:09Z</time>
      </trkpt>
      <trkpt lat="47.71084" lon="-2.40655">
        <ele>32</ele>
        <time>2023-10-30T22:28:52Z</time>
      </trkpt>
      <trkpt lat="47.71016" lon="-2.40499">
        <ele>27</ele>
        <time>2023-10-30T22:31:39Z</time>
      </trkpt>
      <trkpt lat="47.70965" lon="-2.40418">
        <ele>29</ele>
        <time>2023-10-30T22:33:19Z</time>
      </trkpt>
      <trkpt lat="47.70918" lon="-2.40373">
        <ele>32</ele>
        <time>2023-10-30T22:34:33Z</time>
      </trkpt>
      <trkpt lat="47.7083" lon="-2.40209">
        <ele>41</ele>
        <time>2023-10-30T22:37:42Z</time>
      </trkpt>
      <trkpt lat="47.70831" lon="-2.40119">
        <ele>43</ele>
        <time>2023-10-30T22:39:03Z</time>
      </trkpt>
      <trkpt lat="47.70811" lon="-2.4005">
        <ele>45</ele>
        <time>2023-10-30T22:40:10Z</time>
      </trkpt>
      <trkpt lat="47.70691" lon="-2.39856">
        <ele>57</ele>
        <time>2023-10-30T22:44:07Z</time>
      </trkpt>
      <trkpt lat="47.70644" lon="-2.39735">
        <ele>63</ele>
        <time>2023-10-30T22:46:12Z</time>
      </trkpt>
      <trkpt lat="47.70638" lon="-2.39674">
        <ele>65</ele>
        <time>2023-10-30T22:47:07Z</time>
      </trkpt>
      <trkpt lat="47.70647" lon="-2.39438">
        <ele>63</ele>
        <time>2023-10-30T22:50:40Z</time>
      </trkpt>
      <trkpt lat="47.70633" lon="-2.39167">
        <ele>75</ele>
        <time>2023-10-30T22:54:44Z</time>
      </trkpt>
      <trkpt lat="47.70614" lon="-2.39078">
        <ele>78</ele>
        <time>2023-10-30T22:56:08Z</time>
      </trkpt>
      <trkpt lat="47.70607" lon="-2.39031">
        <ele>80</ele>
        <time>2023-10-30T22:56:51Z</time>
      </trkpt>
      <trkpt lat="47.70582" lon="-2.38982">
        <ele>84</ele>
        <time>2023-10-30T22:57:46Z</time>
      </trkpt>
      <trkpt lat="47.70546" lon="-2.38942">
        <ele>84</ele>
        <time>2023-10-30T22:58:46Z</time>
      </trkpt>
      <trkpt lat="47.70574" lon="-2.38844">
        <ele>88</ele>
        <time>2023-10-30T23:00:22Z</time>
      </trkpt>
      <trkpt lat="47.70598" lon="-2.38738">
        <ele>87</ele>
        <time>2023-10-30T23:02:02Z</time>
      </trkpt>
      <trkpt lat="47.70606" lon="-2.38682">
        <ele>83</ele>
        <time>2023-10-30T23:02:53Z</time>
      </trkpt>
      <trkpt lat="47.70593" lon="-2.38626">
        <ele>81</ele>
        <time>2023-10-30T23:03:47Z</time>
      </trkpt>
      <trkpt lat="47.70642" lon="-2.38517">
        <ele>79</ele>
        <time>2023-10-30T23:05:44Z</time>
      </trkpt>
      <trkpt lat="47.70661" lon="-2.38452">
        <ele>80</ele>
        <time>2023-10-30T23:06:48Z</time>
      </trkpt>
      <trkpt lat="47.7066" lon="-2.3839">
        <ele>79</ele>
        <time>2023-10-30T23:07:44Z</time>
      </trkpt>
      <trkpt lat="47.70693" lon="-2.38261">
        <ele>77</ele>
        <time>2023-10-30T23:09:48Z</time>
      </trkpt>
      <trkpt lat="47.70701" lon="-2.38145">
        <ele>78</ele>
        <time>2023-10-30T23:11:32Z</time>
      </trkpt>
      <trkpt lat="47.70726" lon="-2.38125">
        <ele>81</ele>
        <time>2023-10-30T23:12:10Z</time>
      </trkpt>
      <trkpt lat="47.7075" lon="-2.37976">
        <ele>83</ele>
        <time>2023-10-30T23:14:28Z</time>
      </trkpt>
      <trkpt lat="47.7074" lon="-2.37788">
        <ele>81</ele>
        <time>2023-10-30T23:17:17Z</time>
      </trkpt>
      <trkpt lat="47.70728" lon="-2.37625">
        <ele>79</ele>
        <time>2023-10-30T23:19:44Z</time>
      </trkpt>
      <trkpt lat="47.70729" lon="-2.37467">
        <ele>82</ele>
        <time>2023-10-30T23:22:06Z</time>
      </trkpt>
      <trkpt lat="47.70761" lon="-2.37366">
        <ele>80</ele>
        <time>2023-10-30T23:23:47Z</time>
      </trkpt>
      <trkpt lat="47.70726" lon="-2.37128">
        <ele>76</ele>
        <time>2023-10-30T23:27:25Z</time>
      </trkpt>
      <trkpt lat="47.70707" lon="-2.36954">
        <ele>70</ele>
        <time>2023-10-30T23:30:04Z</time>
      </trkpt>
      <trkpt lat="47.70678" lon="-2.36933">
        <ele>69</ele>
        <time>2023-10-30T23:30:47Z</time>
      </trkpt>
      <trkpt lat="47.70673" lon="-2.36904">
        <ele>68</ele>
        <time>2023-10-30T23:31:14Z</time>
      </trkpt>
      <trkpt lat="47.70676" lon="-2.36848">
        <ele>70</ele>
        <time>2023-10-30T23:32:04Z</time>
      </trkpt>
      <trkpt lat="47.70675" lon="-2.36808">
        <ele>69</ele>
        <time>2023-10-30T23:32:40Z</time>
      </trkpt>
      <trkpt lat="47.70648" lon="-2.36702">
        <ele>66</ele>
        <time>2023-10-30T23:34:22Z</time>
      </trkpt>
      <trkpt lat="47.70626" lon="-2.36583">
        <ele>66</ele>
        <time>2023-10-30T23:36:13Z</time>
      </trkpt>
      <trkpt lat="47.70621" lon="-2.36536">
        <ele>65</ele>
        <time>2023-10-30T23:36:55Z</time>
      </trkpt>
      <trkpt lat="47.70636" lon="-2.36496">
        <ele>68</ele>
        <time>2023-10-30T23:37:36Z</time>
      </trkpt>
      <trkpt lat="47.70661" lon="-2.3646">
        <ele>73</ele>
        <time>2023-10-30T23:38:23Z</time>
      </trkpt>
      <trkpt lat="47.70688" lon="-2.36375">
        <ele>72</ele>
        <time>2023-10-30T23:39:47Z</time>
      </trkpt>
      <trkpt lat="47.70707" lon="-2.36248">
        <ele>68</ele>
        <time>2023-10-30T23:41:44Z</time>
      </trkpt>
      <trkpt lat="47.70703" lon="-2.36183">
        <ele>68</ele>
        <time>2023-10-30T23:42:43Z</time>
      </trkpt>
      <trkpt lat="47.70707" lon="-2.36148">
        <ele>68</ele>
        <time>2023-10-30T23:43:15Z</time>
      </trkpt>
      <trkpt lat="47.70692" lon="-2.36082">
        <ele>70</ele>
        <time>2023-10-30T23:44:17Z</time>
      </trkpt>
      <trkpt lat="47.70681" lon="-2.35922">
        <ele>74</ele>
        <time>2023-10-30T23:46:42Z</time>
      </trkpt>
      <trkpt lat="47.70661" lon="-2.35842">
        <ele>76</ele>
        <time>2023-10-30T23:47:58Z</time>
      </trkpt>
      <trkpt lat="47.70661" lon="-2.35787">
        <ele>74</ele>
        <time>2023-10-30T23:48:48Z</time>
      </trkpt>
      <trkpt lat="47.70652" lon="-2.35744">
        <ele>73</ele>
        <time>2023-10-30T23:49:28Z</time>
      </trkpt>
      <trkpt lat="47.70623" lon="-2.35677">
        <ele>73</ele>
        <time>2023-10-30T23:50:40Z</time>
      </trkpt>
      <trkpt lat="47.7062" lon="-2.35643">
        <ele>74</ele>
        <time>2023-10-30T23:51:10Z</time>
      </trkpt>
      <trkpt lat="47.70586" lon="-2.35632">
        <ele>76</ele>
        <time>2023-10-30T23:51:57Z</time>
      </trkpt>
      <trkpt lat="47.70565" lon="-2.3561">
        <ele>75</ele>
        <time>2023-10-30T23:52:31Z</time>
      </trkpt>
      <trkpt lat="47.7056" lon="-2.35576">
        <ele>75</ele>
        <time>2023-10-30T23:53:02Z</time>
      </trkpt>
      <trkpt lat="47.70555" lon="-2.35512">
        <ele>72</ele>
        <time>2023-10-30T23:54:00Z</time>
      </trkpt>
      <trkpt lat="47.70535" lon="-2.35474">
        <ele>69</ele>
        <time>2023-10-30T23:54:44Z</time>
      </trkpt>
      <trkpt lat="47.70528" lon="-2.35378">
        <ele>67</ele>
        <time>2023-10-30T23:56:10Z</time>
      </trkpt>
      <trkpt lat="47.70533" lon="-2.35323">
        <ele>68</ele>
        <time>2023-10-30T23:57:00Z</time>
      </trkpt>
      <trkpt lat="47.70553" lon="-2.35288">
        <ele>71</ele>
        <time>2023-10-30T23:57:41Z</time>
      </trkpt>
      <trkpt lat="47.70591" lon="-2.35243">
        <ele>75</ele>
        <time>2023-10-30T23:58:46Z</time>
      </trkpt>
      <trkpt lat="47.70576" lon="-2.3513">
        <ele>74</ele>
        <time>2023-10-31T00:00:30Z</time>
      </trkpt>
      <trkpt lat="47.70568" lon="-2.34999">
        <ele>75</ele>
        <time>2023-10-31T00:02:28Z</time>
      </trkpt>
      <trkpt lat="47.70556" lon="-2.34965">
        <ele>75</ele>
        <time>2023-10-31T00:03:02Z</time>
      </trkpt>
      <trkpt lat="47.7054" lon="-2.34904">
        <ele>75</ele>
        <time>2023-10-31T00:04:01Z</time>
      </trkpt>
      <trkpt lat="47.70523" lon="-2.34862">
        <ele>75</ele>
        <time>2023-10-31T00:04:45Z</time>
      </trkpt>
      <trkpt lat="47.70521" lon="-2.34813">
        <ele>75</ele>
        <time>2023-10-31T00:05:29Z</time>
      </trkpt>
      <trkpt lat="47.70512" lon="-2.34789">
        <ele>75</ele>
        <time>2023-10-31T00:05:54Z</time>
      </trkpt>
      <trkpt lat="47.70493" lon="-2.34791">
        <ele>73</ele>
        <time>2023-10-31T00:06:19Z</time>
      </trkpt>
      <trkpt lat="47.70464" lon="-2.34737">
        <ele>69</ele>
        <time>2023-10-31T00:07:21Z</time>
      </trkpt>
      <trkpt lat="47.70452" lon="-2.34724">
        <ele>67</ele>
        <time>2023-10-31T00:07:41Z</time>
      </trkpt>
      <trkpt lat="47.70448" lon="-2.34692">
        <ele>68</ele>
        <time>2023-10-31T00:08:10Z</time>
      </trkpt>
      <trkpt lat="47.70429" lon="-2.34662">
        <ele>67</ele>
        <time>2023-10-31T00:08:47Z</time>
      </trkpt>
      <trkpt lat="47.70409" lon="-2.346">
        <ele>67</ele>
        <time>2023-10-31T00:09:49Z</time>
      </trkpt>
      <trkpt lat="47.70389" lon="-2.34526">
        <ele>67</ele>
        <time>2023-10-31T00:11:01Z</time>
      </trkpt>
      <trkpt lat="47.70365" lon="-2.34506">
        <ele>63</ele>
        <time>2023-10-31T00:11:37Z</time>
      </trkpt>
      <trkpt lat="47.70362" lon="-2.34466">
        <ele>64</ele>
        <time>2023-10-31T00:12:13Z</time>
      </trkpt>
      <trkpt lat="47.70374" lon="-2.3442">
        <ele>67</ele>
        <time>2023-10-31T00:12:58Z</time>
      </trkpt>
      <trkpt lat="47.70363" lon="-2.34387">
        <ele>66</ele>
        <time>2023-10-31T00:13:31Z</time>
      </trkpt>
      <trkpt lat="47.70366" lon="-2.34333">
        <ele>68</ele>
        <time>2023-10-31T00:14:20Z</time>
      </trkpt>
      <trkpt lat="47.70354" lon="-2.34293">
        <ele>67</ele>
        <time>2023-10-31T00:14:59Z</time>
      </trkpt>
      <trkpt lat="47.70332" lon="-2.34238">
        <ele>66</ele>
        <time>2023-10-31T00:15:56Z</time>
      </trkpt>
      <trkpt lat="47.70339" lon="-2.34163">
        <ele>67</ele>
        <time>2023-10-31T00:17:04Z</time>
      </trkpt>
      <trkpt lat="47.70316" lon="-2.341">
        <ele>67</ele>
        <time>2023-10-31T00:18:09Z</time>
      </trkpt>
      <trkpt lat="47.70294" lon="-2.34076">
        <ele>65</ele>
        <time>2023-10-31T00:18:45Z</time>
      </trkpt>
      <trkpt lat="47.7029" lon="-2.34061">
        <ele>64</ele>
        <time>2023-10-31T00:19:00Z</time>
      </trkpt>
      <trkpt lat="47.70279" lon="-2.34058">
        <ele>62</ele>
        <time>2023-10-31T00:19:14Z</time>
      </trkpt>
      <trkpt lat="47.70257" lon="-2.34038">
        <ele>59</ele>
        <time>2023-10-31T00:19:49Z</time>
      </trkpt>
      <trkpt lat="47.70236" lon="-2.33977">
        <ele>53</ele>
        <time>2023-10-31T00:20:50Z</time>
      </trkpt>
      <trkpt lat="47.70231" lon="-2.33976">
        <ele>52</ele>
        <time>2023-10-31T00:20:57Z</time>
      </trkpt>
      <trkpt lat="47.70225" lon="-2.33985">
        <ele>51</ele>
        <time>2023-10-31T00:21:09Z</time>
      </trkpt>
      <trkpt lat="47.70224" lon="-2.33971">
        <ele>50</ele>
        <time>2023-10-31T00:21:21Z</time>
      </trkpt>
      <trkpt lat="47.70214" lon="-2.3398">
        <ele>49</ele>
        <time>2023-10-31T00:21:37Z</time>
      </trkpt>
      <trkpt lat="47.70213" lon="-2.33966">
        <ele>48</ele>
        <time>2023-10-31T00:21:49Z</time>
      </trkpt>
      <trkpt lat="47.70207" lon="-2.33974">
        <ele>47</ele>
        <time>2023-10-31T00:22:00Z</time>
      </trkpt>
      <trkpt lat="47.70205" lon="-2.33961">
        <ele>45</ele>
        <time>2023-10-31T00:22:12Z</time>
      </trkpt>
      <trkpt lat="47.7019" lon="-2.33957">
        <ele>42</ele>
        <time>2023-10-31T00:22:33Z</time>
      </trkpt>
      <trkpt lat="47.70184" lon="-2.33941">
        <ele>39</ele>
        <time>2023-10-31T00:22:49Z</time>
      </trkpt>
      <trkpt lat="47.70192" lon="-2.33755">
        <ele>29</ele>
        <time>2023-10-31T00:25:36Z</time>
      </trkpt>
      <trkpt lat="47.70199" lon="-2.33765">
        <ele>31</ele>
        <time>2023-10-31T00:25:49Z</time>
      </trkpt>
      <trkpt lat="47.70131" lon="-2.3376">
        <ele>33</ele>
        <time>2023-10-31T00:27:20Z</time>
      </trkpt>
      <trkpt lat="47.7006" lon="-2.3374">
        <ele>43</ele>
        <time>2023-10-31T00:28:57Z</time>
      </trkpt>
      <trkpt lat="47.70018" lon="-2.33659">
        <ele>45</ele>
        <time>2023-10-31T00:30:28Z</time>
      </trkpt>
      <trkpt lat="47.70004" lon="-2.33622">
        <ele>45</ele>
        <time>2023-10-31T00:31:07Z</time>
      </trkpt>
      <trkpt lat="47.69973" lon="-2.33588">
        <ele>46</ele>
        <time>2023-10-31T00:31:58Z</time>
      </trkpt>
      <trkpt lat="47.69957" lon="-2.33587">
        <ele>47</ele>
        <time>2023-10-31T00:32:19Z</time>
      </trkpt>
      <trkpt lat="47.69943" lon="-2.33592">
        <ele>49</ele>
        <time>2023-10-31T00:32:39Z</time>
      </trkpt>
      <trkpt lat="47.69934" lon="-2.33611">
        <ele>50</ele>
        <time>2023-10-31T00:32:59Z</time>
      </trkpt>
      <trkpt lat="47.69938" lon="-2.33647">
        <ele>51</ele>
        <time>2023-10-31T00:33:32Z</time>
      </trkpt>
      <trkpt lat="47.69933" lon="-2.337">
        <ele>54</ele>
        <time>2023-10-31T00:34:20Z</time>
      </trkpt>
      <trkpt lat="47.69919" lon="-2.33761">
        <ele>57</ele>
        <time>2023-10-31T00:35:18Z</time>
      </trkpt>
      <trkpt lat="47.69907" lon="-2.3378">
        <ele>56</ele>
        <time>2023-10-31T00:35:42Z</time>
      </trkpt>
      <trkpt lat="47.69886" lon="-2.33795">
        <ele>52</ele>
        <time>2023-10-31T00:36:13Z</time>
      </trkpt>
      <trkpt lat="47.69876" lon="-2.3384">
        <ele>52</ele>
        <time>2023-10-31T00:36:55Z</time>
      </trkpt>
      <trkpt lat="47.69866" lon="-2.33847">
        <ele>50</ele>
        <time>2023-10-31T00:37:10Z</time>
      </trkpt>
      <trkpt lat="47.69853" lon="-2.33847">
        <ele>48</ele>
        <time>2023-10-31T00:37:27Z</time>
      </trkpt>
      <trkpt lat="47.69838" lon="-2.33773">
        <ele>43</ele>
        <time>2023-10-31T00:38:37Z</time>
      </trkpt>
      <trkpt lat="47.69836" lon="-2.33713">
        <ele>40</ele>
        <time>2023-10-31T00:39:31Z</time>
      </trkpt>
      <trkpt lat="47.69832" lon="-2.33686">
        <ele>39</ele>
        <time>2023-10-31T00:39:55Z</time>
      </trkpt>
    </trkseg>
  </trk>
</gpx>